Henderson, Nevada
Current Conditions -  °F | °C
As of 7:35 PM on Friday 24 Oct 2014 (Local Time) from KBVU Reporting Station
Clear Clear  
Wind Chill: 26°   Ceiling: Unl
Heat Index: 26°   Visibility: 10mi
Dew Point: -2°   Wind: 7mph
Humidity: 16%   Direction: 140°SE
Pressure: 30.02"   Gusts: NA
Location:  36.03°N, 114.98°W
Report Text: KBVU 250235Z AUTO 14006KT 10SM CLR 26/M02 A3002 RMK AO2
Loading
Personal Weather Stations






























Interactive Weather Map
Tropical Storm Tracking
New forecast layout! Learn more

10-Day Weather Forecast

Advertisements
Track Severe Weather on mobile